Time;durP1;ratioP1;P1;durP2;ratioP2;P2;SDS_P1;SDS_P2;PMS_P1;PMS_P2;Temp;Humidity;BMP_temperature;BMP_pressure;BME280_temperature;BME280_humidity;BME280_pressure;Samples;Min_cycle;Max_cycle;Signal;HPM_P1;HPM_P2
2023/03/16 00:01:45;;;;;;;91.40;58.40;;;;;;;-0.09;69.36;100730.96;110530;1262;21970;-79
2023/03/16 00:04:23;;;;;;;86.90;56.80;;;;;;;-0.11;69.30;100729.05;109830;1269;23068;-78
2023/03/16 00:06:58;;;;;;;98.10;59.40;;;;;;;-0.12;69.23;100728.02;110001;1266;22852;-79
2023/03/16 00:09:34;;;;;;;90.00;61.80;;;;;;;-0.13;69.22;100726.11;109994;1264;24048;-78
2023/03/16 00:12:14;;;;;;;91.40;57.70;;;;;;;-0.15;69.28;100725.40;110365;1263;22966;-78
2023/03/16 00:14:47;;;;;;;85.40;58.10;;;;;;;-0.17;69.20;100724.19;110052;1264;21971;-79
2023/03/16 00:17:28;;;;;;;86.60;55.80;;;;;;;-0.19;69.31;100725.88;110247;1263;22042;-78
2023/03/16 00:20:12;;;;;;;91.00;55.30;;;;;;;-0.22;69.33;100728.23;110359;1263;23713;-79
2023/03/16 00:22:57;;;;;;;84.40;55.30;;;;;;;-0.25;69.34;100730.44;110557;1257;21955;-78
2023/03/16 00:25:28;;;;;;;128.60;79.50;;;;;;;-0.27;69.39;100732.64;110833;1257;21972;-80
2023/03/16 00:28:08;;;;;;;128.10;80.60;;;;;;;-0.27;69.42;100735.35;111001;1257;21991;-79
2023/03/16 00:30:36;;;;;;;127.50;77.10;;;;;;;-0.29;69.44;100737.73;110815;1257;23837;-80
2023/03/16 00:33:23;;;;;;;127.10;75.60;;;;;;;-0.32;69.43;100743.68;110891;1258;23058;-78
2023/03/16 00:36:02;;;;;;;121.10;76.60;;;;;;;-0.34;69.44;100745.20;110803;1257;21991;-78
2023/03/16 00:38:53;;;;;;;97.90;64.50;;;;;;;-0.36;69.47;100749.09;110098;1264;23497;-81
2023/03/16 00:41:36;;;;;;;97.50;64.40;;;;;;;-0.39;69.44;100755.22;110168;1264;21993;-78
2023/03/16 00:44:08;;;;;;;100.20;63.00;;;;;;;-0.41;69.63;100753.64;110314;1265;21981;-79
2023/03/16 00:46:42;;;;;;;95.10;63.70;;;;;;;-0.42;69.70;100756.20;110376;1267;23058;-77
2023/03/16 00:49:23;;;;;;;97.90;61.10;;;;;;;-0.43;69.71;100757.21;109553;1272;21994;-78
2023/03/16 00:51:53;;;;;;;107.00;64.90;;;;;;;-0.45;69.77;100757.87;109235;1271;23041;-80
2023/03/16 00:54:36;;;;;;;103.00;66.60;;;;;;;-0.45;69.75;100756.31;109083;1278;21993;-79
2023/03/16 00:57:28;;;;;;;96.70;63.90;;;;;;;-0.48;69.68;100758.52;109347;1271;21966;-78
2023/03/16 01:00:07;;;;;;;95.80;63.30;;;;;;;-0.50;69.83;100757.47;109461;1271;22006;-78
2023/03/16 01:02:40;;;;;;;105.40;63.90;;;;;;;-0.50;69.92;100758.48;109191;1273;22346;-79
2023/03/16 01:05:18;;;;;;;101.30;63.30;;;;;;;-0.50;69.92;100758.31;109322;1273;22370;-78
2023/03/16 01:07:54;;;;;;;114.80;67.40;;;;;;;-0.52;69.91;100761.02;109963;1265;21969;-79
2023/03/16 01:10:29;;;;;;;97.80;63.70;;;;;;;-0.52;69.94;100761.70;109448;1269;22272;-81
2023/03/16 01:13:07;;;;;;;96.20;62.80;;;;;;;-0.54;70.00;100763.03;109775;1268;21978;-81
2023/03/16 01:15:41;;;;;;;103.20;65.30;;;;;;;-0.55;70.02;100763.36;110176;1268;21996;-80
2023/03/16 01:18:23;;;;;;;99.30;66.00;;;;;;;-0.56;70.05;100765.40;109969;1268;21989;-80
2023/03/16 01:21:07;;;;;;;105.90;67.90;;;;;;;-0.56;70.12;100769.66;110445;1267;22161;-81
2023/03/16 01:23:49;;;;;;;106.80;67.60;;;;;;;-0.56;70.18;100773.61;110043;1267;23749;-80
2023/03/16 01:26:24;;;;;;;97.00;66.30;;;;;;;-0.56;70.19;100773.44;110118;1267;22002;-81
2023/03/16 01:29:02;;;;;;;101.50;65.00;;;;;;;-0.55;70.28;100778.77;110109;1263;22726;-79
2023/03/16 01:31:42;;;;;;;105.40;66.70;;;;;;;-0.54;70.31;100778.77;110704;1258;22003;-80
2023/03/16 01:34:23;;;;;;;98.40;65.50;;;;;;;-0.54;70.38;100781.17;110840;1258;23775;-79
2023/03/16 01:37:10;;;;;;;99.20;65.50;;;;;;;-0.52;70.34;100785.30;111083;1251;22115;-81
2023/03/16 01:40:10;;;;;;;91.50;62.00;;;;;;;-0.52;70.46;100789.05;110625;1258;21966;-78
2023/03/16 01:43:06;;;;;;;95.60;62.80;;;;;;;-0.51;70.59;100786.52;110766;1257;23033;-79
2023/03/16 01:46:06;;;;;;;93.30;61.30;;;;;;;-0.50;70.76;100787.21;110956;1257;21966;-78
2023/03/16 01:49:06;;;;;;;87.50;59.70;;;;;;;-0.48;70.79;100786.20;111127;1257;21979;-79
2023/03/16 01:51:50;;;;;;;89.60;58.60;;;;;;;-0.47;70.79;100785.54;110514;1263;22432;-79
2023/03/16 01:54:26;;;;;;;87.70;58.60;;;;;;;-0.46;70.78;100786.42;110588;1258;22001;-79
2023/03/16 01:57:03;;;;;;;84.20;57.70;;;;;;;-0.44;70.86;100786.10;110377;1264;21966;-79
2023/03/16 01:59:44;;;;;;;87.30;57.90;;;;;;;-0.41;70.78;100790.59;110530;1264;21980;-79
2023/03/16 02:02:26;;;;;;;87.30;58.50;;;;;;;-0.41;70.70;100791.09;110426;1263;21978;-78
2023/03/16 02:05:34;;;;;;;86.10;58.20;;;;;;;-0.43;70.48;100794.66;110322;1263;21972;-79
2023/03/16 02:08:09;;;;;;;92.80;62.20;;;;;;;-0.46;70.49;100796.66;109748;1269;23612;-78
2023/03/16 02:10:39;;;;;;;88.70;59.80;;;;;;;-0.48;70.45;100796.13;109687;1262;22071;-78
2023/03/16 02:13:21;;;;;;;87.90;59.50;;;;;;;-0.50;70.38;100799.69;109480;1269;21979;-79
2023/03/16 02:16:02;;;;;;;89.00;59.20;;;;;;;-0.52;70.35;100799.66;109768;1268;21978;-79
2023/03/16 02:18:37;;;;;;;92.80;57.60;;;;;;;-0.55;70.30;100797.55;109585;1268;24532;-80
2023/03/16 02:21:15;;;;;;;79.90;52.00;;;;;;;-0.56;70.40;100802.66;109529;1268;22003;-78
2023/03/16 02:23:49;;;;;;;88.20;56.70;;;;;;;-0.57;70.42;100804.55;109837;1268;21988;-80
2023/03/16 02:26:52;;;;;;;84.50;57.70;;;;;;;-0.57;70.40;100807.10;109279;1273;22030;-77
2023/03/16 02:30:07;;;;;;;83.50;56.20;;;;;;;-0.59;70.44;100807.77;110174;1267;21988;-80
2023/03/16 02:32:52;;;;;;;76.70;49.90;;;;;;;-0.61;70.52;100810.13;110633;1262;23595;-81
2023/03/16 02:35:25;;;;;;;76.30;50.00;;;;;;;-0.60;70.56;100815.27;110644;1262;21979;-82
2023/03/16 02:38:03;;;;;;;63.30;44.70;;;;;;;-0.56;70.70;100817.89;110644;1262;22046;-80
2023/03/16 02:40:57;;;;;;;65.50;41.50;;;;;;;-0.52;70.77;100815.05;110183;1268;21970;-79
2023/03/16 02:43:46;;;;;;;56.20;39.30;;;;;;;-0.50;70.93;100816.80;109900;1263;21973;-79
2023/03/16 02:46:34;;;;;;;52.70;36.00;;;;;;;-0.47;70.97;100822.47;110780;1262;22077;-80
2023/03/16 02:49:24;;;;;;;53.60;35.80;;;;;;;-0.42;71.06;100822.04;110548;1265;22000;-79
2023/03/16 02:52:08;;;;;;;54.00;34.70;;;;;;;-0.37;71.08;100825.35;110558;1265;22007;-79
2023/03/16 02:54:42;;;;;;;49.30;33.60;;;;;;;-0.34;71.17;100824.19;110307;1258;23030;-80
2023/03/16 02:57:26;;;;;;;50.00;33.50;;;;;;;-0.29;71.13;100828.55;110193;1267;21981;-78
2023/03/16 03:00:19;;;;;;;49.50;32.10;;;;;;;-0.25;71.11;100833.39;109895;1267;22052;-80
2023/03/16 03:02:53;;;;;;;48.80;32.10;;;;;;;-0.23;71.06;100835.48;109997;1267;22631;-78
2023/03/16 03:05:31;;;;;;;53.20;31.50;;;;;;;-0.20;70.86;100833.29;110006;1267;21988;-80
2023/03/16 03:08:08;;;;;;;44.90;30.00;;;;;;;-0.17;70.86;100833.48;110262;1267;22000;-79
2023/03/16 03:10:38;;;;;;;44.20;29.40;;;;;;;-0.15;70.88;100835.92;109497;1273;21987;-80
2023/03/16 03:13:13;;;;;;;50.40;30.40;;;;;;;-0.11;70.81;100836.30;105041;1273;5809337;-81
2023/03/16 03:15:53;;;;;;;40.70;28.70;;;;;;;-0.09;70.79;100837.38;109828;1270;22744;-79
2023/03/16 03:18:30;;;;;;;44.20;28.80;;;;;;;-0.07;70.58;100841.67;109220;1275;21992;-79
2023/03/16 03:21:03;;;;;;;41.40;28.20;;;;;;;-0.07;70.52;100839.80;109058;1275;22022;-79
2023/03/16 03:23:37;;;;;;;41.60;27.00;;;;;;;-0.06;70.62;100843.91;109020;1277;23699;-80
2023/03/16 03:26:14;;;;;;;42.20;26.50;;;;;;;-0.05;70.55;100845.46;109841;1269;21985;-79
2023/03/16 03:29:12;;;;;;;42.60;28.10;;;;;;;-0.05;70.51;100849.25;110096;1265;23706;-79
2023/03/16 03:31:49;;;;;;;38.10;25.70;;;;;;;-0.06;70.48;100855.21;109957;1265;22056;-78
2023/03/16 03:34:30;;;;;;;43.20;27.30;;;;;;;-0.08;70.37;100857.59;110040;1263;21975;-78
2023/03/16 03:37:08;;;;;;;40.60;26.90;;;;;;;-0.10;70.39;100861.16;110017;1261;21986;-78
2023/03/16 03:39:40;;;;;;;46.40;27.80;;;;;;;-0.12;70.21;100860.95;110115;1265;22067;-79
2023/03/16 03:42:25;;;;;;;38.50;25.90;;;;;;;-0.16;70.07;100861.92;110268;1264;22049;-80
2023/03/16 03:45:11;;;;;;;42.70;25.70;;;;;;;-0.20;70.07;100862.20;110097;1265;22000;-79
2023/03/16 03:47:47;;;;;;;40.90;24.90;;;;;;;-0.23;70.02;100858.74;110101;1269;21999;-78
2023/03/16 03:50:22;;;;;;;36.80;24.30;;;;;;;-0.23;70.02;100858.39;109835;1270;22054;-78
2023/03/16 03:53:12;;;;;;;36.10;22.30;;;;;;;-0.27;69.94;100860.91;109602;1270;23621;-79
2023/03/16 03:56:08;;;;;;;45.90;24.00;;;;;;;-0.31;69.91;100863.41;110571;1263;22018;-80
2023/03/16 03:58:48;;;;;;;39.30;23.50;;;;;;;-0.33;69.86;100867.14;110486;1263;23202;-78
2023/03/16 04:01:39;;;;;;;37.80;24.60;;;;;;;-0.37;69.78;100869.14;110375;1263;21975;-80
2023/03/16 04:04:15;;;;;;;40.00;23.80;;;;;;;-0.39;69.89;100870.47;110762;1262;21995;-81
2023/03/16 04:06:50;;;;;;;35.10;22.00;;;;;;;-0.42;69.90;100869.23;110616;1259;21997;-79
2023/03/16 04:09:22;;;;;;;35.80;23.00;;;;;;;-0.43;69.90;100872.12;111176;1257;22009;-78
2023/03/16 04:12:00;;;;;;;32.30;21.50;;;;;;;-0.43;70.02;100873.48;111108;1257;22465;-80
2023/03/16 04:14:34;;;;;;;35.20;22.50;;;;;;;-0.42;70.12;100875.55;111332;1257;21987;-80
2023/03/16 04:17:11;;;;;;;30.60;20.40;;;;;;;-0.40;70.18;100876.45;110745;1258;22560;-79
2023/03/16 04:19:47;;;;;;;32.10;21.30;;;;;;;-0.42;70.26;100874.52;110847;1257;22015;-80
2023/03/16 04:22:22;;;;;;;32.50;21.20;;;;;;;-0.42;70.32;100873.15;110863;1258;23618;-79
2023/03/16 04:24:54;;;;;;;30.50;21.00;;;;;;;-0.42;70.31;100877.09;110957;1258;22955;-79
2023/03/16 04:27:35;;;;;;;29.30;21.40;;;;;;;-0.43;70.34;100875.38;110886;1252;23690;-80
2023/03/16 04:30:13;;;;;;;29.20;19.90;;;;;;;-0.42;70.45;100873.84;110744;1258;22644;-80
2023/03/16 04:32:51;;;;;;;33.70;20.40;;;;;;;-0.42;70.47;100873.16;110650;1258;21963;-77
2023/03/16 04:35:26;;;;;;;36.40;22.00;;;;;;;-0.43;70.39;100872.98;111041;1258;21992;-80
2023/03/16 04:38:01;;;;;;;32.30;20.20;;;;;;;-0.43;70.44;100873.49;110940;1259;23706;-81
2023/03/16 04:40:43;;;;;;;31.00;19.40;;;;;;;-0.43;70.58;100875.39;110993;1257;23748;-79
2023/03/16 04:43:19;;;;;;;27.10;19.50;;;;;;;-0.41;70.74;100877.46;110877;1257;22133;-80
2023/03/16 04:45:51;;;;;;;31.50;21.10;;;;;;;-0.41;70.73;100876.77;110942;1257;22305;-79
2023/03/16 04:48:24;;;;;;;30.50;20.30;;;;;;;-0.40;70.78;100879.86;111178;1257;21973;-79
2023/03/16 04:50:59;;;;;;;28.30;19.20;;;;;;;-0.37;70.92;100880.92;111034;1257;21987;-80
2023/03/16 04:53:38;;;;;;;36.50;22.10;;;;;;;-0.36;70.88;100885.22;110890;1257;23494;-79
2023/03/16 04:56:24;;;;;;;32.20;21.20;;;;;;;-0.36;70.94;100891.21;111121;1257;22441;-80
2023/03/16 04:59:04;;;;;;;32.90;21.60;;;;;;;-0.33;70.90;100895.00;110882;1257;21971;-80
2023/03/16 05:01:43;;;;;;;33.70;25.10;;;;;;;-0.33;71.01;100901.35;110637;1261;23053;-80
2023/03/16 05:04:18;;;;;;;49.30;26.30;;;;;;;-0.31;70.99;100903.27;110452;1261;22718;-79
2023/03/16 05:06:58;;;;;;;32.80;24.80;;;;;;;-0.31;70.96;100903.61;110598;1261;21987;-79
2023/03/16 05:09:35;;;;;;;37.20;25.00;;;;;;;-0.30;71.04;100901.23;110668;1261;21984;-77
2023/03/16 05:12:06;;;;;;;;;;;;;;;-0.28;70.97;100899.21;110588;1261;21977;-78
2023/03/16 05:14:40;;;;;;;29.90;21.80;;;;;;;-0.36;71.06;100899.58;110943;1261;23051;-79
2023/03/16 05:17:19;;;;;;;39.80;25.70;;;;;;;-0.37;71.11;100902.84;110508;1261;23720;-81
2023/03/16 05:19:51;;;;;;;42.10;28.70;;;;;;;-0.34;71.24;100906.46;110974;1258;21978;-78
2023/03/16 05:22:32;;;;;;;33.30;22.70;;;;;;;-0.29;71.30;100909.79;110904;1258;23601;-79
2023/03/16 05:25:21;;;;;;;30.40;20.10;;;;;;;-0.26;71.30;100911.73;110718;1259;21985;-80
2023/03/16 05:27:55;;;;;;;30.90;19.90;;;;;;;-0.21;71.30;100914.18;110806;1258;22001;-80
2023/03/16 05:30:35;;;;;;;42.30;26.90;;;;;;;-0.18;71.33;100916.80;111192;1258;22003;-81
2023/03/16 05:33:12;;;;;;;34.10;23.20;;;;;;;-0.14;71.40;100923.70;110102;1267;21981;-80
2023/03/16 05:35:41;;;;;;;28.10;17.90;;;;;;;-0.10;71.47;100931.98;109998;1265;22731;-80
2023/03/16 05:38:17;;;;;;;32.90;20.80;;;;;;;-0.06;71.48;100932.55;110067;1265;22186;-79
2023/03/16 05:41:05;;;;;;;35.10;20.10;;;;;;;0.00;71.61;100930.25;110287;1265;22421;-80
2023/03/16 05:44:09;;;;;;;31.80;19.40;;;;;;;0.04;71.66;100936.30;109758;1271;23695;-81
2023/03/16 05:46:53;;;;;;;35.20;18.50;;;;;;;0.10;71.62;100935.52;109696;1271;22740;-79
2023/03/16 05:49:53;;;;;;;29.30;17.50;;;;;;;0.15;71.58;100935.61;109496;1270;21976;-81
2023/03/16 05:52:39;;;;;;;33.00;19.20;;;;;;;0.20;71.51;100939.60;110376;1262;22346;-81
2023/03/16 05:55:23;;;;;;;30.20;18.20;;;;;;;0.25;71.50;100942.40;110691;1262;21991;-80
2023/03/16 05:58:14;;;;;;;30.00;17.20;;;;;;;0.31;71.63;100942.32;110489;1262;23671;-81
2023/03/16 06:00:46;;;;;;;31.70;17.90;;;;;;;0.38;71.44;100943.95;110541;1258;22429;-82
2023/03/16 06:03:28;;;;;;;31.40;20.60;;;;;;;0.46;71.55;100949.36;111264;1252;23783;-80
2023/03/16 06:06:04;;;;;;;37.50;21.20;;;;;;;0.53;71.57;100952.02;111084;1257;23632;-80
2023/03/16 06:08:45;;;;;;;49.70;27.10;;;;;;;0.60;71.45;100955.20;111046;1257;22426;-79
2023/03/16 06:11:35;;;;;;;57.30;32.60;;;;;;;0.64;71.35;100953.19;111190;1257;21963;-79
2023/03/16 06:14:05;;;;;;;58.90;34.40;;;;;;;0.68;71.18;100953.23;111059;1257;21966;-81
2023/03/16 06:16:45;;;;;;;52.20;32.70;;;;;;;0.70;71.24;100952.59;111216;1254;21974;-79
2023/03/16 06:19:28;;;;;;;92.10;63.90;;;;;;;0.77;71.32;100949.06;110713;1262;23596;-81
2023/03/16 06:22:11;;;;;;;107.20;80.60;;;;;;;0.83;71.22;100947.77;110398;1262;22237;-80
2023/03/16 06:24:48;;;;;;;46.80;35.60;;;;;;;0.92;71.22;100953.01;110553;1262;24611;-79
2023/03/16 06:27:20;;;;;;;32.80;18.50;;;;;;;0.99;71.06;100951.72;110388;1262;23609;-79
2023/03/16 06:30:15;;;;;;;35.30;24.80;;;;;;;1.03;71.04;100952.95;110799;1262;21970;-79
2023/03/16 06:32:47;;;;;;;36.70;27.00;;;;;;;1.19;71.41;100957.59;110387;1266;21983;-79
2023/03/16 06:35:17;;;;;;;29.50;18.60;;;;;;;1.31;71.52;100968.00;110440;1266;21981;-80
2023/03/16 06:37:58;;;;;;;31.60;18.10;;;;;;;1.46;71.41;100972.09;110576;1261;22000;-80
2023/03/16 06:41:00;;;;;;;26.10;16.10;;;;;;;1.56;71.08;100977.50;110349;1267;22003;-80
2023/03/16 06:43:46;;;;;;;22.70;14.20;;;;;;;1.63;70.73;100982.19;110178;1267;22070;-83
2023/03/16 06:46:23;;;;;;;24.90;16.00;;;;;;;1.69;70.53;100984.14;110064;1267;21976;-80
2023/03/16 06:48:59;;;;;;;32.80;20.80;;;;;;;1.77;70.40;100987.96;110016;1267;21988;-80
2023/03/16 06:51:34;;;;;;;25.90;18.50;;;;;;;1.93;70.60;100991.54;110622;1260;21972;-80
2023/03/16 06:54:34;;;;;;;25.20;15.30;;;;;;;2.23;70.82;100991.23;110680;1262;21995;-83
2023/03/16 06:57:11;;;;;;;27.70;14.80;;;;;;;2.51;70.99;100994.83;110673;1262;21989;-78
2023/03/16 06:59:46;;;;;;;21.50;14.20;;;;;;;2.79;70.81;100992.23;111019;1257;22303;-79
2023/03/16 07:02:23;;;;;;;24.90;15.60;;;;;;;3.04;69.86;100991.65;110996;1257;22033;-80
2023/03/16 07:05:04;;;;;;;20.30;14.50;;;;;;;3.36;70.41;100991.73;110380;1261;22062;-79
2023/03/16 07:07:42;;;;;;;29.00;17.50;;;;;;;3.93;71.45;100993.66;110280;1260;22106;-79
2023/03/16 07:10:18;;;;;;;24.60;14.80;;;;;;;4.47;70.89;100992.55;110253;1263;21979;-74
2023/03/16 07:12:49;;;;;;;24.10;16.30;;;;;;;4.90;69.67;100992.60;109580;1269;23636;-74
2023/03/16 07:15:24;;;;;;;26.00;17.40;;;;;;;5.31;68.78;100992.39;109654;1269;23037;-74
2023/03/16 07:18:08;;;;;;;31.20;19.20;;;;;;;5.64;67.28;100995.63;109712;1269;23068;-74
2023/03/16 07:20:43;;;;;;;26.20;15.30;;;;;;;5.93;66.10;100996.46;109527;1269;23691;-78
2023/03/16 07:23:14;;;;;;;25.20;14.00;;;;;;;6.25;65.21;100996.89;109256;1270;21996;-75
2023/03/16 07:25:47;;;;;;;19.30;13.80;;;;;;;6.52;64.18;100997.64;109475;1270;21981;-76
2023/03/16 07:28:24;;;;;;;24.30;14.10;;;;;;;6.72;62.54;100995.70;109714;1270;21988;-80
2023/03/16 07:31:13;;;;;;;26.50;12.30;;;;;;;6.90;61.72;100996.52;110102;1263;21941;-81
2023/03/16 07:33:57;;;;;;;23.80;15.50;;;;;;;7.14;61.39;100998.64;110092;1268;24136;-79
2023/03/16 07:36:37;;;;;;;23.60;13.70;;;;;;;7.44;60.80;100997.02;109998;1268;23642;-77
2023/03/16 07:39:16;;;;;;;19.90;11.50;;;;;;;7.81;60.71;100998.55;109590;1268;21978;-81
2023/03/16 07:42:03;;;;;;;17.90;11.40;;;;;;;8.11;59.02;101001.66;109914;1270;21979;-80
2023/03/16 07:45:11;;;;;;;22.90;11.50;;;;;;;8.37;58.33;101003.83;109726;1268;21983;-81
2023/03/16 07:48:10;;;;;;;20.50;14.90;;;;;;;8.60;57.14;101004.48;109627;1273;22002;-80
2023/03/16 07:50:53;;;;;;;17.10;12.30;;;;;;;8.82;56.20;101004.20;109505;1269;23071;-81
2023/03/16 07:53:32;;;;;;;23.10;14.60;;;;;;;8.98;55.06;101002.14;109880;1269;22029;-81
2023/03/16 07:56:21;;;;;;;19.20;12.60;;;;;;;9.21;54.60;101007.58;109315;1276;22772;-81
2023/03/16 07:59:03;;;;;;;20.90;12.40;;;;;;;9.42;53.93;101011.63;109168;1270;23299;-81
2023/03/16 08:01:41;;;;;;;21.80;14.80;;;;;;;9.62;52.99;101015.35;109632;1270;21986;-79
2023/03/16 08:04:41;;;;;;;19.10;12.90;;;;;;;9.77;52.56;101014.64;109968;1270;21978;-81
2023/03/16 08:07:26;;;;;;;21.20;13.40;;;;;;;9.92;51.50;101018.45;110667;1264;23048;-81
2023/03/16 08:10:12;;;;;;;23.00;15.00;;;;;;;9.97;50.55;101017.61;110323;1264;21976;-81
2023/03/16 08:13:09;;;;;;;17.30;11.00;;;;;;;10.12;50.67;101021.59;110428;1265;22264;-80
2023/03/16 08:16:00;;;;;;;17.50;9.60;;;;;;;10.30;50.31;101022.91;110989;1258;21962;-81
2023/03/16 08:18:43;;;;;;;48.10;35.80;;;;;;;10.49;49.67;101022.42;110686;1263;21992;-79
2023/03/16 08:21:17;;;;;;;22.00;12.90;;;;;;;10.76;50.00;101023.94;110800;1263;22905;-80
2023/03/16 08:23:50;;;;;;;22.30;11.40;;;;;;;11.02;49.33;101022.68;110199;1269;22015;-81
2023/03/16 08:26:28;;;;;;;22.20;12.80;;;;;;;11.29;48.62;101022.77;109809;1269;22015;-79
2023/03/16 08:29:02;;;;;;;20.40;12.20;;;;;;;11.52;47.90;101026.95;109816;1269;21991;-79
2023/03/16 08:31:41;;;;;;;17.60;10.70;;;;;;;11.69;47.00;101023.28;109777;1269;23077;-80
2023/03/16 08:34:23;;;;;;;22.50;10.90;;;;;;;11.83;46.53;101025.99;109921;1269;23024;-80
2023/03/16 08:36:54;;;;;;;17.40;9.50;;;;;;;11.98;46.21;101024.65;110341;1263;23053;-80
2023/03/16 08:39:24;;;;;;;19.00;11.50;;;;;;;12.08;45.23;101024.83;110460;1263;22074;-80
2023/03/16 08:41:59;;;;;;;17.50;9.00;;;;;;;12.20;45.15;101028.97;109548;1268;23014;-79
2023/03/16 08:44:38;;;;;;;13.00;9.10;;;;;;;12.27;43.86;101029.27;110193;1266;21803;-79
2023/03/16 08:47:10;;;;;;;27.30;12.70;;;;;;;12.08;43.39;101027.11;109935;1255;22040;-80
2023/03/16 08:49:45;;;;;;;14.60;8.00;;;;;;;12.15;44.44;101027.23;110481;1261;22205;-79
2023/03/16 08:52:33;;;;;;;22.30;11.20;;;;;;;12.54;44.60;101032.36;110368;1261;22955;-78
2023/03/16 08:55:46;;;;;;;23.40;11.80;;;;;;;12.93;43.76;101035.49;110601;1261;21962;-79
2023/03/16 08:58:32;;;;;;;19.00;9.50;;;;;;;12.98;42.44;101038.81;110309;1267;21971;-80
2023/03/16 09:01:04;;;;;;;14.60;8.50;;;;;;;12.97;42.11;101040.06;110227;1262;22299;-79
2023/03/16 09:03:53;;;;;;;18.10;7.30;;;;;;;12.84;41.71;101044.02;110390;1263;23694;-80
2023/03/16 09:06:40;;;;;;;13.80;5.80;;;;;;;12.41;41.02;101041.69;110565;1262;21963;-80
2023/03/16 09:09:18;;;;;;;11.90;6.90;;;;;;;11.84;41.64;101038.85;110311;1262;21986;-76
2023/03/16 09:11:58;;;;;;;14.10;6.20;;;;;;;11.34;42.19;101041.78;110391;1262;23119;-80
2023/03/16 09:14:30;;;;;;;11.30;6.50;;;;;;;11.05;43.07;101046.81;110476;1262;22825;-78
2023/03/16 09:17:01;;;;;;;20.00;8.20;;;;;;;11.05;43.70;101049.77;111032;1257;21994;-79
2023/03/16 09:19:32;;;;;;;18.60;8.80;;;;;;;11.04;43.82;101048.77;110945;1257;21983;-73
2023/03/16 09:22:24;;;;;;;17.30;8.90;;;;;;;11.17;44.64;101050.98;111181;1257;23062;-83
2023/03/16 09:24:54;;;;;;;23.90;8.70;;;;;;;11.54;44.91;101051.64;110855;1257;21990;-81
2023/03/16 09:27:35;;;;;;;17.50;7.20;;;;;;;11.59;44.18;101049.92;111062;1257;23024;-81
2023/03/16 09:30:10;;;;;;;13.70;8.10;;;;;;;11.42;44.27;101047.11;111167;1257;23618;-80
2023/03/16 09:32:54;;;;;;;16.30;8.50;;;;;;;11.27;44.58;101045.12;111179;1257;21964;-78
2023/03/16 09:35:48;;;;;;;;;;;;;;;;;;;;;
2023/03/16 09:38:36;;;;;;;;;;;;;;;;;;;;;
2023/03/16 09:41:56;;;;;;;11.10;5.70;;;;;;;11.35;44.20;101050.46;110801;1262;21976;-79
2023/03/16 09:46:09;;;;;;;13.60;5.70;;;;;;;11.17;44.69;101056.39;110928;1262;22393;-83
2023/03/16 09:48:47;;;;;;;13.30;5.50;;;;;;;11.05;44.69;101055.33;109930;1270;21985;-82
2023/03/16 09:52:07;;;;;;;;;;;;;;;;;;;;;
2023/03/16 09:55:46;;;;;;;;;;;;;;;;;;;;;
2023/03/16 09:58:57;;;;;;;13.20;5.70;;;;;;;10.84;45.17;101048.27;109368;1269;23148;-83
2023/03/16 10:01:55;;;;;;;11.50;5.20;;;;;;;10.98;44.83;101047.86;110009;1268;21995;-81
2023/03/16 10:05:11;;;;;;;11.30;6.60;;;;;;;10.81;44.19;101053.75;109966;1269;22012;-82
2023/03/16 10:08:25;;;;;;;12.30;6.40;;;;;;;10.71;45.10;101046.19;109619;1273;21818;-83
2023/03/16 10:11:35;;;;;;;11.00;5.70;;;;;;;11.05;45.06;101043.52;109345;1274;22457;-82
2023/03/16 10:14:48;;;;;;;27.40;9.70;;;;;;;11.44;44.54;101047.42;109381;1268;22041;-86
2023/03/16 10:18:08;;;;;;;12.70;5.20;;;;;;;11.26;43.19;101053.52;109557;1274;22762;-82
2023/03/16 10:20:54;;;;;;;10.80;4.80;;;;;;;10.59;42.69;101053.98;109509;1274;21990;-82
2023/03/16 10:23:44;;;;;;;8.70;4.30;;;;;;;9.99;43.16;101050.79;109107;1273;21983;-81
2023/03/16 10:26:30;;;;;;;10.60;6.80;;;;;;;9.55;43.57;101053.02;109549;1269;21998;-82
2023/03/16 10:29:36;;;;;;;9.20;5.20;;;;;;;9.18;44.03;101056.25;109917;1269;21986;-83
2023/03/16 10:32:22;;;;;;;6.70;3.40;;;;;;;8.85;44.20;101059.36;109785;1270;22018;-80
2023/03/16 10:35:50;;;;;;;11.10;4.50;;;;;;;8.63;44.77;101058.02;109740;1270;22716;-81
2023/03/16 10:39:18;;;;;;;12.10;5.50;;;;;;;8.94;45.85;101060.04;109538;1274;21952;-82
2023/03/16 10:42:16;;;;;;;13.60;5.80;;;;;;;9.63;45.25;101061.88;109406;1274;22386;-82
2023/03/16 10:45:02;;;;;;;9.90;5.80;;;;;;;9.75;44.25;101060.56;109803;1270;23069;-82
2023/03/16 10:47:41;;;;;;;13.70;5.30;;;;;;;9.90;44.64;101058.83;109884;1270;21994;-81
2023/03/16 10:50:35;;;;;;;10.80;5.50;;;;;;;10.18;44.70;101060.77;109925;1270;23631;-82
2023/03/16 10:53:35;;;;;;;10.70;5.40;;;;;;;10.48;44.34;101066.47;110096;1269;23042;-82
2023/03/16 10:56:31;;;;;;;17.90;6.20;;;;;;;10.60;43.98;101065.30;109832;1267;21963;-82
2023/03/16 10:59:35;;;;;;;14.30;5.00;;;;;;;10.72;43.62;101064.45;110881;1265;22207;-82
2023/03/16 11:02:34;;;;;;;11.10;6.20;;;;;;;10.59;42.54;101061.64;110556;1252;23068;-82
2023/03/16 11:05:29;;;;;;;11.40;4.80;;;;;;;10.38;42.85;101062.55;110716;1265;21972;-81
2023/03/16 11:08:12;;;;;;;20.50;7.80;;;;;;;10.19;42.13;101061.45;110579;1263;21993;-80
2023/03/16 11:10:58;;;;;;;15.60;6.10;;;;;;;9.78;42.09;101063.46;110689;1263;22015;-80
2023/03/16 11:13:39;;;;;;;12.60;5.20;;;;;;;9.67;43.16;101060.05;110573;1264;21976;-80
2023/03/16 11:17:01;;;;;;;14.40;6.10;;;;;;;9.71;43.44;101063.10;110622;1261;21962;-82
2023/03/16 11:20:07;;;;;;;12.00;5.00;;;;;;;9.56;42.59;101061.34;110913;1261;21980;-81
2023/03/16 11:22:51;;;;;;;9.90;4.70;;;;;;;9.22;42.65;101066.23;110966;1261;22115;-83
2023/03/16 11:25:45;;;;;;;9.90;4.60;;;;;;;9.08;42.91;101067.73;111139;1260;21977;-81
2023/03/16 11:28:28;;;;;;;10.30;5.60;;;;;;;9.01;43.22;101067.36;110902;1261;21973;-80
2023/03/16 11:31:41;;;;;;;9.60;5.30;;;;;;;8.98;43.46;101069.15;110220;1269;21992;-79
2023/03/16 11:34:20;;;;;;;14.90;4.40;;;;;;;9.02;43.29;101070.13;110246;1269;22002;-81
2023/03/16 11:37:17;;;;;;;14.70;4.80;;;;;;;8.89;42.88;101064.30;110193;1269;23065;-82
2023/03/16 11:40:32;;;;;;;10.50;4.90;;;;;;;8.68;42.75;101067.81;110210;1268;21984;-80
2023/03/16 11:43:17;;;;;;;10.30;4.60;;;;;;;8.54;43.23;101067.19;110266;1267;22002;-81
2023/03/16 11:46:17;;;;;;;10.00;5.10;;;;;;;8.53;43.50;101062.00;110242;1269;21980;-82
2023/03/16 11:49:38;;;;;;;10.30;4.60;;;;;;;8.54;43.48;101058.70;109976;1267;22990;-83
2023/03/16 11:52:48;;;;;;;8.70;4.40;;;;;;;8.57;43.49;101062.11;109876;1271;22469;-81
2023/03/16 11:55:40;;;;;;;7.90;3.80;;;;;;;8.33;43.04;101060.42;109369;1275;22949;-82
2023/03/16 11:58:39;;;;;;;12.70;6.30;;;;;;;8.05;43.23;101057.60;109346;1275;22096;-82
2023/03/16 12:01:44;;;;;;;8.00;4.00;;;;;;;7.79;43.50;101052.63;109678;1273;22922;-78
2023/03/16 12:04:49;;;;;;;10.20;5.50;;;;;;;7.57;44.03;101055.54;109732;1273;22057;-79
2023/03/16 12:07:37;;;;;;;9.00;4.00;;;;;;;7.49;44.41;101056.52;109919;1269;22080;-80
2023/03/16 12:10:31;;;;;;;13.40;5.00;;;;;;;7.47;44.48;101054.47;109785;1269;21974;-82
2023/03/16 12:13:14;;;;;;;10.40;4.80;;;;;;;7.54;44.80;101055.59;109710;1269;23627;-81
2023/03/16 12:16:10;;;;;;;12.70;5.20;;;;;;;7.65;44.79;101056.48;109237;1271;22029;-81
2023/03/16 12:19:30;;;;;;;;;;;;;;;;;;;;;
2023/03/16 12:22:39;;;;;;;11.80;6.20;;;;;;;7.64;44.63;101055.79;109628;1271;22717;-83
2023/03/16 12:25:47;;;;;;;12.50;4.40;;;;;;;7.70;44.64;101052.58;109203;1277;23773;-82
2023/03/16 12:28:28;;;;;;;9.70;4.80;;;;;;;7.74;44.67;101055.13;109504;1270;22072;-80
2023/03/16 12:31:21;;;;;;;13.90;6.80;;;;;;;7.82;44.51;101047.90;109196;1276;23058;-82
2023/03/16 12:34:15;;;;;;;10.20;4.70;;;;;;;7.79;44.05;101050.88;109531;1270;22001;-80